createdAt,value
2022-12-03T00:00:13.284Z,2.77
2022-12-03T00:05:15.504Z,2.31
2022-12-03T00:10:17.632Z,2.22
2022-12-03T00:15:19.754Z,2.27
2022-12-03T00:20:24.274Z,2.27
2022-12-03T00:25:26.335Z,1.49
2022-12-03T00:30:28.248Z,2.30
2022-12-03T00:35:30.303Z,1.93
2022-12-03T00:40:32.326Z,2.33
2022-12-03T00:45:34.257Z,2.68
2022-12-03T00:50:36.208Z,2.19
2022-12-03T00:55:38.171Z,2.57
2022-12-03T01:00:40.072Z,2.13
2022-12-03T01:05:41.990Z,2.22
2022-12-03T01:10:43.928Z,1.63
2022-12-03T01:15:46.442Z,2.90
2022-12-03T01:20:48.377Z,2.14
2022-12-03T01:25:50.312Z,2.45
2022-12-03T01:31:10.909Z,1.94
2022-12-03T01:36:12.994Z,1.38
2022-12-03T01:41:17.828Z,-0.29
2022-12-03T01:46:23.449Z,1.13
2022-12-03T01:51:25.499Z,0.88
2022-12-03T01:56:27.857Z,1.67
2022-12-03T02:01:29.807Z,-0.07
2022-12-03T02:06:31.951Z,1.53
2022-12-03T02:11:36.950Z,1.49
2022-12-03T02:16:41.214Z,1.21
2022-12-03T02:21:57.387Z,1.60
2022-12-03T02:26:59.343Z,1.95
2022-12-03T02:32:01.531Z,1.67
2022-12-03T02:37:05.895Z,1.45
2022-12-03T02:42:27.826Z,1.52
2022-12-03T02:47:31.350Z,1.66
2022-12-03T02:52:33.412Z,1.83
2022-12-03T02:57:37.667Z,1.99
2022-12-03T03:02:41.828Z,1.28
2022-12-03T03:07:44.199Z,0.61
2022-12-03T03:12:46.319Z,1.43
2022-12-03T03:17:48.667Z,1.83
2022-12-03T03:22:50.592Z,1.94
2022-12-03T03:27:52.536Z,1.44
2022-12-03T03:32:54.770Z,1.71
2022-12-03T03:37:58.806Z,1.68
2022-12-03T03:43:01.234Z,1.76
2022-12-03T03:48:03.539Z,1.40
2022-12-03T03:53:06.144Z,-0.03
2022-12-03T03:58:08.359Z,1.27
2022-12-03T04:03:11.174Z,1.51
2022-12-03T04:08:13.116Z,2.41
2022-12-03T04:13:15.098Z,2.30
2022-12-03T04:18:35.882Z,2.71
2022-12-03T04:23:37.789Z,0.98
2022-12-03T04:28:51.528Z,2.27
2022-12-03T04:34:11.623Z,1.70
2022-12-03T04:39:13.680Z,2.45
2022-12-03T04:44:33.509Z,2.49
2022-12-03T04:49:37.950Z,2.87
2022-12-03T04:54:40.789Z,3.29
2022-12-03T04:59:42.719Z,1.90
2022-12-03T05:04:44.671Z,2.33
2022-12-03T05:09:46.591Z,2.64
2022-12-03T05:14:48.544Z,2.99
2022-12-03T05:20:09.217Z,2.35
2022-12-03T05:25:11.181Z,2.65
2022-12-03T05:30:13.434Z,2.58
2022-12-03T05:35:15.610Z,3.01
2022-12-03T05:40:18.244Z,3.01
2022-12-03T05:45:24.882Z,2.45
2022-12-03T05:50:29.548Z,3.32
2022-12-03T05:55:31.538Z,2.76
2022-12-03T06:00:42.370Z,2.99
2022-12-03T06:05:44.890Z,3.35
2022-12-03T06:10:46.923Z,3.18
2022-12-03T06:15:48.995Z,1.10
2022-12-03T06:20:51.047Z,2.90
2022-12-03T06:25:53.135Z,3.36
2022-12-03T06:30:55.139Z,3.64
2022-12-03T06:35:57.219Z,3.63
2022-12-03T06:40:59.351Z,3.82
2022-12-03T06:46:01.543Z,3.99
2022-12-03T06:51:03.605Z,4.08
2022-12-03T06:56:06.017Z,3.48
2022-12-03T07:01:07.977Z,3.51
2022-12-03T07:06:10.324Z,3.67
2022-12-03T07:11:32.469Z,3.43
2022-12-03T07:16:36.504Z,2.94
2022-12-03T07:21:38.911Z,1.04
2022-12-03T07:26:41.010Z,2.30
2022-12-03T07:31:43.962Z,2.23
2022-12-03T07:36:46.016Z,0.37
2022-12-03T07:41:48.032Z,0.41
2022-12-03T07:46:50.064Z,-0.77
2022-12-03T07:51:55.001Z,-0.99
2022-12-03T07:57:01.422Z,-1.53
2022-12-03T08:02:04.452Z,0.26
2022-12-03T08:07:06.565Z,-0.53
2022-12-03T08:12:17.252Z,-1.92
2022-12-03T08:17:21.398Z,-0.50
2022-12-03T08:22:24.938Z,0.21
2022-12-03T08:27:26.915Z,0.85
2022-12-03T08:32:28.931Z,0.95
2022-12-03T08:37:30.948Z,1.32
2022-12-03T08:42:42.915Z,-0.49
2022-12-03T08:47:44.912Z,0.60
2022-12-03T08:52:46.895Z,2.06
2022-12-03T08:57:48.895Z,0.68
2022-12-03T09:02:59.910Z,0.31
2022-12-03T09:08:02.128Z,-3.36
2022-12-03T09:13:04.251Z,-2.97
2022-12-03T09:18:07.562Z,-0.28
2022-12-03T09:23:09.707Z,0.14
2022-12-03T09:28:11.646Z,-0.74
2022-12-03T09:39:26.009Z,-1.31
2022-12-03T09:44:34.667Z,-2.26
2022-12-03T09:49:38.915Z,-0.06
2022-12-03T09:54:46.873Z,1.15
2022-12-03T09:59:49.432Z,-1.48
2022-12-03T10:04:53.394Z,-4.53
2022-12-03T10:09:55.946Z,-4.41
2022-12-03T10:15:06.075Z,-2.99
2022-12-03T10:20:13.281Z,-4.02
2022-12-03T10:25:19.088Z,-4.32
2022-12-03T10:30:23.427Z,-3.62
2022-12-03T10:35:37.676Z,0.01
2022-12-03T10:40:39.836Z,-0.64
2022-12-03T10:45:43.425Z,-1.34
2022-12-03T10:50:57.102Z,0.82
2022-12-03T10:56:02.041Z,-1.65
2022-12-03T11:01:14.933Z,-2.11
2022-12-03T11:06:19.786Z,-0.87
2022-12-03T11:11:27.811Z,-0.86
2022-12-03T11:16:41.848Z,0.94
2022-12-03T11:22:05.462Z,1.27
2022-12-03T11:27:15.881Z,2.01
2022-12-03T11:32:39.754Z,-1.11
2022-12-03T11:37:41.951Z,-2.80
2022-12-03T11:42:46.679Z,-2.11
2022-12-03T11:47:58.003Z,-3.27
2022-12-03T11:53:13.063Z,0.09
2022-12-03T11:58:29.823Z,-1.51
2022-12-03T12:03:33.854Z,-3.59
2022-12-03T12:08:39.468Z,-3.06
2022-12-03T12:13:41.728Z,-3.29
2022-12-03T12:18:55.064Z,-1.24
2022-12-03T12:23:57.799Z,0.91
2022-12-03T12:28:59.984Z,-0.94
2022-12-03T12:34:01.950Z,-3.15
2022-12-03T12:39:12.051Z,-3.82
2022-12-03T12:44:14.501Z,-2.11
2022-12-03T12:49:16.503Z,-0.89
2022-12-03T12:54:18.991Z,-0.33
2022-12-03T12:59:36.335Z,-1.68
2022-12-03T13:04:40.273Z,-2.45
2022-12-03T13:09:42.392Z,-1.71
2022-12-03T13:14:45.317Z,-2.95
2022-12-03T13:19:52.105Z,-2.73
2022-12-03T13:25:03.352Z,-2.01
2022-12-03T13:30:17.474Z,-3.76
2022-12-03T13:35:36.065Z,-1.40
2022-12-03T13:40:40.201Z,-2.85
2022-12-03T13:45:56.229Z,-3.29
2022-12-03T13:51:28.882Z,-1.80
2022-12-03T13:56:36.434Z,-2.75
2022-12-03T14:01:38.581Z,-1.72
2022-12-03T14:06:40.692Z,-0.09
2022-12-03T14:12:01.459Z,0.24
2022-12-03T14:17:04.548Z,-0.58
2022-12-03T14:22:08.807Z,-2.99
2022-12-03T14:27:10.849Z,0.12
2022-12-03T14:32:12.956Z,1.85
2022-12-03T14:37:15.366Z,1.81
2022-12-03T14:42:18.376Z,1.29
2022-12-03T14:47:22.690Z,-2.13
2022-12-03T14:52:26.005Z,-2.00
2022-12-03T14:57:28.533Z,0.39
2022-12-03T15:02:30.618Z,-1.10
2022-12-03T15:07:32.780Z,-1.18
2022-12-03T15:12:34.880Z,-0.19
2022-12-03T15:17:36.888Z,-1.18
2022-12-03T15:22:39.358Z,1.88
2022-12-03T15:27:41.743Z,2.50
2022-12-03T15:32:44.071Z,3.09
2022-12-03T15:37:46.137Z,-1.15
2022-12-03T15:42:49.632Z,2.14
2022-12-03T15:47:52.585Z,0.42
2022-12-03T15:52:54.857Z,0.54
2022-12-03T15:57:56.925Z,2.00
2022-12-03T16:02:58.975Z,2.70
2022-12-03T16:08:01.177Z,2.57
2022-12-03T16:13:03.320Z,3.39
2022-12-03T16:18:05.488Z,2.88
2022-12-03T16:23:08.337Z,3.03
2022-12-03T16:28:10.459Z,2.86
2022-12-03T16:33:12.515Z,3.56
2022-12-03T16:38:14.484Z,3.79
2022-12-03T16:43:16.660Z,3.65
2022-12-03T16:48:19.129Z,2.22
2022-12-03T16:53:21.193Z,2.67
2022-12-03T16:58:26.261Z,2.38
2022-12-03T17:03:33.819Z,0.08
2022-12-03T17:08:37.052Z,-1.01
2022-12-03T17:13:39.036Z,1.20
2022-12-03T17:18:41.067Z,-0.15
2022-12-03T17:23:44.983Z,-0.69
2022-12-03T17:28:55.083Z,2.59
2022-12-03T17:34:00.567Z,2.99
2022-12-03T17:39:02.873Z,-0.14
2022-12-03T17:44:09.901Z,1.82
2022-12-03T17:49:12.298Z,2.24
2022-12-03T17:54:14.305Z,1.32
2022-12-03T17:59:16.584Z,2.54
2022-12-03T18:04:18.633Z,-0.27
2022-12-03T18:09:20.764Z,0.79
2022-12-03T18:14:23.056Z,-1.06
2022-12-03T18:19:25.013Z,-0.97
2022-12-03T18:24:27.340Z,-1.26
2022-12-03T18:29:29.373Z,-1.37
2022-12-03T18:34:31.446Z,-1.51
2022-12-03T18:39:36.378Z,-2.11
2022-12-03T18:44:38.391Z,-1.04
2022-12-03T18:49:40.779Z,0.88
2022-12-03T18:54:43.111Z,1.97
2022-12-03T18:59:45.571Z,0.83
2022-12-03T19:04:48.559Z,1.79
2022-12-03T19:09:50.534Z,0.67
2022-12-03T19:14:52.521Z,1.69
2022-12-03T19:19:55.303Z,2.44
2022-12-03T19:24:57.605Z,3.08
2022-12-03T19:30:07.118Z,2.97
2022-12-03T19:35:11.463Z,3.38
2022-12-03T19:40:14.538Z,2.75
2022-12-03T19:45:16.520Z,3.37
2022-12-03T19:50:22.924Z,3.61
2022-12-03T19:55:25.636Z,3.76
2022-12-03T20:00:27.801Z,3.39
2022-12-03T20:05:36.039Z,2.28
2022-12-03T20:10:38.015Z,2.30
2022-12-03T20:15:39.968Z,2.29
2022-12-03T20:20:41.926Z,2.87
2022-12-03T20:25:43.899Z,2.11
2022-12-03T20:30:47.133Z,2.79
2022-12-03T20:35:56.557Z,2.47
2022-12-03T20:41:06.911Z,2.77
2022-12-03T20:46:14.683Z,2.19
2022-12-03T20:51:19.110Z,1.67
2022-12-03T20:56:28.065Z,2.15
2022-12-03T21:01:30.064Z,3.21
2022-12-03T21:06:34.090Z,1.91
2022-12-03T21:11:39.048Z,-0.09
2022-12-03T21:22:04.559Z,0.65
2022-12-03T21:27:06.490Z,1.27
2022-12-03T21:32:08.439Z,1.56
2022-12-03T21:37:10.532Z,1.21
2022-12-03T21:42:19.323Z,1.62
2022-12-03T21:47:37.327Z,2.35
2022-12-03T21:52:39.936Z,0.84
2022-12-03T21:57:41.863Z,1.24
2022-12-03T22:02:44.097Z,1.60
2022-12-03T22:07:46.088Z,2.57
2022-12-03T22:12:48.053Z,3.37
2022-12-03T22:17:50.004Z,3.25
2022-12-03T22:22:51.893Z,2.68
2022-12-03T22:27:53.903Z,3.58
2022-12-03T22:32:55.830Z,3.08
2022-12-03T22:37:57.846Z,3.90
2022-12-03T22:42:59.729Z,3.77
2022-12-03T22:48:02.954Z,3.20
2022-12-03T22:53:04.836Z,2.84
2022-12-03T22:58:08.203Z,0.91
2022-12-03T23:03:10.202Z,2.97
2022-12-03T23:08:19.492Z,2.72
2022-12-03T23:13:21.514Z,3.52
2022-12-03T23:18:23.472Z,3.94
2022-12-03T23:23:27.579Z,2.21
2022-12-03T23:28:31.560Z,3.93
2022-12-03T23:33:38.187Z,2.60
2022-12-03T23:38:41.363Z,1.98
2022-12-03T23:43:43.515Z,0.90
2022-12-03T23:48:45.693Z,-0.03
2022-12-03T23:53:47.727Z,1.21
2022-12-03T23:58:49.942Z,2.04
